Terminal Aerodrome Forecast
Issued by NWS Atlanta, GA

Home | Current Version | Previous Version | Text Only | Print | Product List | Glossary On
Versions: 1 2 3 4 5 6 7 8 9 10 11 12 13 14 15 16 17
000
FTUS42 KFFC 191136
TAFMCN
TAF
KMCN 191136Z 1912/2012 29004KT P6SM SCT150 BKN250
     FM192000 01004KT P6SM OVC120
     FM200400 04005KT P6SM VCSH BKN040 OVC080
     FM200800 06004KT P6SM -SHRA OVC035=

USA.gov is the U.S. government's official web portal to all federal, state and local government web resources and services.